Time;durP1;ratioP1;P1;durP2;ratioP2;P2;SDS_P1;SDS_P2;PMS_P1;PMS_P2;Temp;Humidity;BMP_temperature;BMP_pressure;BME280_temperature;BME280_humidity;BME280_pressure;Samples;Min_cycle;Max_cycle;Signal;HPM_P1;HPM_P2
2022/08/21 00:00:22;;;;;;;7.30;4.97;;;22.50;99.90;;;;;;4996200;28;20196;-76
2022/08/21 00:02:55;;;;;;;7.30;4.80;;;22.40;99.90;;;;;;5014004;28;20196;-78
2022/08/21 00:05:23;;;;;;;8.57;4.90;;;22.40;99.90;;;;;;4977120;28;20688;-75
2022/08/21 00:07:51;;;;;;;9.23;4.80;;;22.30;99.90;;;;;;4993017;28;20323;-78
2022/08/21 00:10:19;;;;;;;8.00;4.80;;;22.20;99.90;;;;;;4977384;28;20304;-79
2022/08/21 00:12:47;;;;;;;12.37;5.43;;;22.20;99.90;;;;;;4993462;28;20217;-78
2022/08/21 00:15:18;;;;;;;10.57;5.30;;;22.20;99.90;;;;;;4976690;28;20209;-78
2022/08/21 00:17:56;;;;;;;7.87;5.20;;;22.10;99.90;;;;;;4977080;28;20196;-77
2022/08/21 00:20:27;;;;;;;7.03;4.77;;;22.10;99.90;;;;;;4976889;28;20189;-78
2022/08/21 00:22:54;;;;;;;7.30;4.83;;;22.00;99.90;;;;;;4992710;28;20224;-80
2022/08/21 00:25:23;;;;;;;6.90;5.43;;;22.00;99.90;;;;;;4976715;28;20185;-79
2022/08/21 00:27:52;;;;;;;7.90;5.07;;;21.90;99.90;;;;;;4976826;28;20220;-78
2022/08/21 00:30:22;;;;;;;6.47;5.03;;;21.90;99.90;;;;;;4976935;28;20665;-78
2022/08/21 00:32:51;;;;;;;8.87;5.00;;;21.90;99.90;;;;;;4976353;28;20267;-78
2022/08/21 00:35:21;;;;;;;7.60;5.10;;;21.80;99.90;;;;;;4976524;28;20232;-76
2022/08/21 00:37:48;;;;;;;9.83;5.63;;;21.80;99.90;;;;;;4992853;28;20255;-77
2022/08/21 00:40:19;;;;;;;9.37;4.77;;;21.70;99.90;;;;;;4976519;28;20280;-79
2022/08/21 00:42:46;;;;;;;7.17;4.90;;;21.70;99.90;;;;;;4976473;28;20201;-78
2022/08/21 00:45:27;;;;;;;5.57;4.50;;;21.60;99.90;;;;;;4961209;28;20212;-78
2022/08/21 00:47:55;;;;;;;7.57;5.40;;;21.60;99.90;;;;;;4976436;28;20239;-79
2022/08/21 00:50:25;;;;;;;9.63;5.00;;;21.70;99.90;;;;;;4994016;28;20200;-77
2022/08/21 00:52:53;;;;;;;8.23;5.27;;;21.50;99.90;;;;;;4976714;28;20303;-79
2022/08/21 00:55:28;;;;;;;9.27;4.83;;;21.60;99.90;;;;;;4976073;28;20205;-79
2022/08/21 00:58:00;;;;;;;9.00;5.07;;;21.50;99.90;;;;;;4977223;28;20189;-79
2022/08/21 01:00:31;;;;;;;9.23;5.03;;;21.50;99.90;;;;;;4993846;28;20661;-78
2022/08/21 01:03:00;;;;;;;7.97;5.20;;;21.40;99.90;;;;;;4976600;28;20549;-78
2022/08/21 01:05:33;;;;;;;9.27;5.80;;;21.40;99.90;;;;;;4960916;28;20213;-78
2022/08/21 01:08:00;;;;;;;8.00;4.93;;;21.30;99.90;;;;;;4977235;28;20263;-78
2022/08/21 01:10:28;;;;;;;8.50;5.10;;;21.20;99.90;;;;;;4976028;28;20192;-78
2022/08/21 01:12:57;;;;;;;11.50;5.37;;;21.20;99.90;;;;;;4960492;28;20283;-78
2022/08/21 01:15:28;;;;;;;9.17;5.10;;;21.20;99.90;;;;;;4993272;28;20307;-78
2022/08/21 01:17:55;;;;;;;6.83;5.17;;;21.20;99.90;;;;;;4976307;28;20725;-79
2022/08/21 01:20:23;;;;;;;6.67;5.00;;;21.10;99.90;;;;;;4993586;28;20560;-79
2022/08/21 01:23:00;;;;;;;6.63;4.50;;;21.10;99.90;;;;;;4977231;28;20220;-78
2022/08/21 01:25:28;;;;;;;7.03;4.87;;;21.10;99.90;;;;;;4902494;29;20207;-76
2022/08/21 01:27:56;;;;;;;8.33;5.00;;;21.00;99.90;;;;;;4917936;29;20243;-77
2022/08/21 01:30:26;;;;;;;11.10;5.40;;;21.00;99.90;;;;;;4902540;29;20204;-77
2022/08/21 01:32:54;;;;;;;8.07;5.00;;;21.00;99.90;;;;;;4902430;29;20227;-77
2022/08/21 01:35:22;;;;;;;8.17;5.17;;;21.00;99.90;;;;;;4918042;29;20206;-77
2022/08/21 01:37:49;;;;;;;7.37;4.80;;;20.90;99.90;;;;;;4918230;29;20298;-77
2022/08/21 01:40:17;;;;;;;8.27;5.20;;;20.90;99.90;;;;;;4921113;29;20291;-77
2022/08/21 01:42:45;;;;;;;7.50;5.27;;;20.90;99.90;;;;;;4933408;28;20208;-77
2022/08/21 01:45:13;;;;;;;8.43;4.97;;;20.80;99.90;;;;;;4996338;28;20204;-79
2022/08/21 01:47:41;;;;;;;6.30;5.00;;;20.80;99.90;;;;;;4979787;28;20224;-79
2022/08/21 01:50:16;;;;;;;9.50;5.00;;;20.80;99.90;;;;;;4979827;28;20624;-79
2022/08/21 01:52:42;;;;;;;13.53;5.73;;;20.70;99.90;;;;;;4979207;28;20627;-79
2022/08/21 01:55:11;;;;;;;11.50;5.20;;;20.70;99.90;;;;;;4979691;28;20259;-79
2022/08/21 01:57:39;;;;;;;6.80;4.83;;;20.70;99.90;;;;;;4980138;28;20219;-78
2022/08/21 02:00:10;;;;;;;11.83;5.80;;;20.70;99.90;;;;;;4997132;28;20221;-79
2022/08/21 02:02:40;;;;;;;10.27;5.20;;;20.60;99.90;;;;;;4995949;28;20255;-77
2022/08/21 02:05:10;;;;;;;7.23;5.23;;;20.60;99.90;;;;;;4996740;28;20197;-78
2022/08/21 02:07:45;;;;;;;7.03;5.00;;;20.50;99.90;;;;;;4996814;28;20731;-77
2022/08/21 02:10:16;;;;;;;9.67;5.23;;;20.50;99.90;;;;;;4996592;28;20189;-78
2022/08/21 02:12:43;;;;;;;9.20;5.07;;;20.50;99.90;;;;;;4979370;28;20312;-79
2022/08/21 02:15:10;;;;;;;9.93;5.37;;;20.50;99.90;;;;;;4979505;28;20304;-78
2022/08/21 02:17:45;;;;;;;8.53;5.43;;;20.40;99.90;;;;;;4995343;28;20296;-78
2022/08/21 02:20:38;;;;;;;7.70;5.20;;;20.40;99.90;;;;;;4979223;28;20207;-78
2022/08/21 02:23:07;;;;;;;6.50;5.07;;;20.40;99.90;;;;;;4979623;28;20248;-77
2022/08/21 02:25:35;;;;;;;10.33;5.63;;;20.40;99.90;;;;;;4978928;28;20269;-77
2022/08/21 02:28:10;;;;;;;6.87;5.30;;;20.40;99.90;;;;;;4996664;28;20258;-77
2022/08/21 02:30:44;;;;;;;8.43;5.43;;;20.40;99.90;;;;;;4996532;28;20273;-79
2022/08/21 02:33:14;;;;;;;12.07;5.73;;;20.30;99.90;;;;;;4978587;28;20213;-79
2022/08/21 02:35:43;;;;;;;8.13;5.50;;;20.30;99.90;;;;;;4995413;28;20698;-79
2022/08/21 02:38:14;;;;;;;7.13;5.13;;;20.20;99.90;;;;;;4979142;28;20300;-80
2022/08/21 02:40:43;;;;;;;9.23;5.57;;;20.20;99.90;;;;;;4979159;28;20304;-79
2022/08/21 02:43:16;;;;;;;7.13;5.20;;;20.20;99.90;;;;;;4996323;28;20193;-79
2022/08/21 02:45:44;;;;;;;7.53;5.40;;;20.20;99.90;;;;;;4996160;28;20600;-78
2022/08/21 02:48:14;;;;;;;6.43;5.27;;;20.10;99.90;;;;;;4978500;28;20239;-77
2022/08/21 02:50:53;;;;;;;7.57;5.60;;;20.10;99.90;;;;;;4978468;28;20294;-77
2022/08/21 02:53:20;;;;;;;8.27;5.60;;;20.10;99.90;;;;;;4978281;28;20227;-77
2022/08/21 02:55:50;;;;;;;7.90;5.27;;;20.10;99.90;;;;;;4978292;28;20303;-76
2022/08/21 02:58:23;;;;;;;8.53;5.40;;;20.10;99.90;;;;;;4978313;28;20685;-77
2022/08/21 03:00:51;;;;;;;6.57;5.53;;;20.00;99.90;;;;;;4978599;28;20212;-77
2022/08/21 03:03:22;;;;;;;7.23;5.60;;;20.00;99.90;;;;;;4978289;28;20203;-79
2022/08/21 03:05:49;;;;;;;7.07;5.50;;;20.00;99.90;;;;;;4962249;28;20224;-78
2022/08/21 03:08:16;;;;;;;6.87;5.40;;;19.90;99.90;;;;;;4977796;28;20283;-79
2022/08/21 03:10:47;;;;;;;8.53;5.53;;;19.90;99.90;;;;;;4995599;28;20275;-77
2022/08/21 03:13:16;;;;;;;8.20;5.57;;;19.90;99.90;;;;;;4978074;28;20208;-78
2022/08/21 03:15:44;;;;;;;7.80;5.27;;;19.90;99.90;;;;;;4990991;28;20321;-77
2022/08/21 03:18:11;;;;;;;7.67;5.53;;;19.90;99.90;;;;;;4976100;28;20224;-77
2022/08/21 03:20:40;;;;;;;8.83;5.33;;;19.80;99.90;;;;;;4975098;28;20658;-78
2022/08/21 03:23:09;;;;;;;9.23;5.63;;;19.80;99.90;;;;;;4990761;28;20216;-77
2022/08/21 03:25:50;;;;;;;9.00;5.47;;;19.80;99.90;;;;;;4973397;28;20746;-77
2022/08/21 03:28:21;;;;;;;12.23;5.57;;;19.80;99.90;;;;;;4974474;28;20236;-78
2022/08/21 03:30:50;;;;;;;10.53;5.40;;;19.80;99.90;;;;;;4975222;28;20296;-77
2022/08/21 03:33:18;;;;;;;8.80;5.20;;;19.70;99.90;;;;;;4974615;28;20288;-78
2022/08/21 03:36:06;;;;;;;6.97;5.70;;;19.80;99.90;;;;;;4976029;28;20205;-79
2022/08/21 03:38:34;;;;;;;10.67;5.70;;;19.70;99.90;;;;;;4990586;28;20296;-77
2022/08/21 03:41:02;;;;;;;8.73;5.83;;;19.70;99.90;;;;;;4958381;28;20671;-77
2022/08/21 03:43:31;;;;;;;8.63;5.50;;;19.70;99.90;;;;;;4974210;28;20205;-77
2022/08/21 03:46:01;;;;;;;12.80;5.97;;;19.70;99.90;;;;;;4957987;28;20205;-78
2022/08/21 03:48:28;;;;;;;8.77;5.80;;;19.70;99.90;;;;;;4974302;28;20766;-79
2022/08/21 03:50:56;;;;;;;7.70;5.50;;;19.70;99.90;;;;;;4974391;28;20225;-79
2022/08/21 03:53:24;;;;;;;16.47;7.40;;;19.70;99.90;;;;;;4974272;28;20296;-78
2022/08/21 03:55:53;;;;;;;12.07;6.23;;;19.70;99.90;;;;;;4974179;28;20212;-79
2022/08/21 03:58:28;;;;;;;9.30;5.50;;;19.70;99.90;;;;;;4974294;28;20292;-79
2022/08/21 04:01:15;;;;;;;8.57;5.80;;;19.70;99.90;;;;;;4975047;28;20335;-79
2022/08/21 04:03:42;;;;;;;7.80;5.67;;;19.80;99.90;;;;;;4973946;28;20198;-79
2022/08/21 04:06:09;;;;;;;9.43;5.60;;;19.80;99.90;;;;;;4974505;28;20244;-78
2022/08/21 04:08:42;;;;;;;10.57;5.60;;;19.80;99.90;;;;;;4974211;28;20247;-79
2022/08/21 04:11:12;;;;;;;10.77;5.73;;;19.80;99.90;;;;;;4974123;28;20205;-80
2022/08/21 04:13:55;;;;;;;7.80;5.67;;;19.70;99.90;;;;;;4973684;28;20213;-80
2022/08/21 04:16:22;;;;;;;10.67;5.80;;;19.80;99.90;;;;;;4995588;23;20240;-80
2022/08/21 04:18:58;;;;;;;9.07;5.40;;;19.80;99.90;;;;;;5012493;28;20196;-79
2022/08/21 04:21:25;;;;;;;18.57;6.60;;;19.80;99.90;;;;;;5019022;23;20656;-78
2022/08/21 04:24:03;;;;;;;8.73;5.80;;;19.80;99.90;;;;;;4996196;28;20211;-78
2022/08/21 04:26:43;;;;;;;9.97;5.97;;;19.90;99.90;;;;;;5012295;28;20203;-79
2022/08/21 04:29:10;;;;;;;8.50;5.33;;;19.90;99.90;;;;;;5013768;28;20214;-77
2022/08/21 04:31:37;;;;;;;6.77;5.50;;;19.90;99.90;;;;;;5012276;28;20234;-78
2022/08/21 04:34:05;;;;;;;9.10;5.50;;;19.90;99.90;;;;;;5012244;28;20192;-77
2022/08/21 04:36:33;;;;;;;8.47;5.40;;;19.90;99.90;;;;;;5012128;28;20232;-79
2022/08/21 04:39:03;;;;;;;8.57;5.50;;;19.90;99.90;;;;;;5012350;28;20199;-77
2022/08/21 04:41:33;;;;;;;6.80;5.07;;;19.90;99.90;;;;;;5012203;28;20204;-78
2022/08/21 04:44:00;;;;;;;8.93;5.23;;;20.00;99.90;;;;;;5012060;28;20219;-78
2022/08/21 04:46:27;;;;;;;8.77;4.97;;;19.90;99.90;;;;;;5011940;28;20653;-78
2022/08/21 04:48:59;;;;;;;12.27;5.63;;;20.00;99.90;;;;;;5013583;28;20597;-78
2022/08/21 04:51:34;;;;;;;9.23;5.40;;;20.10;99.90;;;;;;5013218;28;20710;-77
2022/08/21 04:54:06;;;;;;;9.37;5.50;;;20.10;99.90;;;;;;5012342;28;20558;-78
2022/08/21 04:56:39;;;;;;;6.43;5.37;;;20.10;99.90;;;;;;5013170;28;20199;-77
2022/08/21 04:59:28;;;;;;;8.00;5.10;;;20.20;99.90;;;;;;5011456;28;20291;-77
2022/08/21 05:01:56;;;;;;;9.50;5.17;;;20.20;99.90;;;;;;5012032;28;20291;-79
2022/08/21 05:04:29;;;;;;;8.80;5.33;;;20.20;99.90;;;;;;5013425;28;20204;-77
2022/08/21 05:07:07;;;;;;;8.40;5.30;;;20.20;99.90;;;;;;5011863;28;20286;-77
2022/08/21 05:09:38;;;;;;;8.03;5.13;;;20.30;99.90;;;;;;5013547;28;20286;-77
2022/08/21 05:12:05;;;;;;;7.40;5.47;;;20.40;99.90;;;;;;4995442;28;20206;-76
2022/08/21 05:14:32;;;;;;;14.03;5.60;;;20.40;99.90;;;;;;5011800;28;20215;-77
2022/08/21 05:17:31;;;;;;;8.03;5.10;;;20.50;99.90;;;;;;5011761;28;20192;-77
2022/08/21 05:19:58;;;;;;;6.57;5.50;;;20.50;99.90;;;;;;4936396;29;20198;-78
2022/08/21 05:22:25;;;;;;;10.03;5.43;;;20.50;99.90;;;;;;4935876;29;20330;-77
2022/08/21 05:24:52;;;;;;;8.47;5.40;;;20.50;99.90;;;;;;4952394;29;20295;-77
2022/08/21 05:27:19;;;;;;;8.87;5.70;;;20.50;99.90;;;;;;4952575;29;20209;-78
2022/08/21 05:29:49;;;;;;;7.30;5.03;;;20.60;99.90;;;;;;4952566;29;20699;-77
2022/08/21 05:32:19;;;;;;;7.73;5.40;;;20.70;99.90;;;;;;4935971;29;20302;-78
2022/08/21 05:34:46;;;;;;;8.40;5.47;;;20.70;99.90;;;;;;4952641;29;20281;-78
2022/08/21 05:37:18;;;;;;;6.47;4.83;;;20.80;99.90;;;;;;4936792;29;20225;-79
2022/08/21 05:39:45;;;;;;;7.43;5.10;;;20.90;99.90;;;;;;4936553;29;20210;-77
2022/08/21 05:43:19;;;;;;;12.87;5.70;;;21.00;99.90;;;;;;5005159;23;20594;-78
2022/08/21 05:45:46;;;;;;;9.53;5.30;;;21.20;99.90;;;;;;5006465;28;20200;-76
2022/08/21 05:48:24;;;;;;;8.43;5.30;;;21.30;99.90;;;;;;5012977;28;20220;-76
2022/08/21 05:50:51;;;;;;;6.93;5.10;;;21.30;99.90;;;;;;5011439;28;20295;-77
2022/08/21 05:53:20;;;;;;;7.73;4.87;;;21.30;99.90;;;;;;5011594;28;20234;-77
2022/08/21 05:55:47;;;;;;;5.73;4.93;;;21.40;99.90;;;;;;5011459;28;20235;-77
2022/08/21 05:58:32;;;;;;;6.33;5.00;;;21.40;99.90;;;;;;5011370;28;20311;-78
2022/08/21 06:03:44;;;;;;;12.80;5.50;;;21.60;99.90;;;;;;5286356;23;20224;-79
2022/08/21 06:06:18;;;;;;;13.80;6.00;;;21.60;99.90;;;;;;5014436;28;20574;-79
2022/08/21 06:08:45;;;;;;;7.10;4.90;;;21.60;99.90;;;;;;4999063;28;20237;-77
2022/08/21 06:11:12;;;;;;;6.97;5.00;;;21.70;99.90;;;;;;5018008;28;20564;-76
2022/08/21 06:13:39;;;;;;;6.87;5.60;;;21.80;99.90;;;;;;5018142;28;20206;-77
2022/08/21 06:16:15;;;;;;;7.50;5.43;;;21.80;99.90;;;;;;5018167;28;20295;-76
2022/08/21 06:18:43;;;;;;;13.87;5.77;;;21.80;99.90;;;;;;5001982;28;20206;-76
2022/08/21 06:21:12;;;;;;;8.37;5.57;;;21.80;99.90;;;;;;5035601;28;20278;-76
2022/08/21 06:23:40;;;;;;;7.87;5.07;;;21.90;99.90;;;;;;5017845;28;20296;-76
2022/08/21 06:26:09;;;;;;;9.57;5.40;;;22.00;99.90;;;;;;5002000;28;20203;-76
2022/08/21 06:28:37;;;;;;;9.40;5.30;;;22.10;99.90;;;;;;5001483;28;20675;-77
2022/08/21 06:33:58;;;;;;;6.80;5.50;;;22.40;99.90;;;;;;5041643;22;20685;-76
2022/08/21 06:36:26;;;;;;;7.07;5.60;;;22.50;99.90;;;;;;5035387;28;20183;-76
2022/08/21 06:38:53;;;;;;;7.57;5.27;;;22.60;99.90;;;;;;5017292;28;20195;-77
2022/08/21 06:41:22;;;;;;;9.37;5.37;;;22.60;99.90;;;;;;5034247;28;20187;-76
2022/08/21 06:43:54;;;;;;;7.60;5.33;;;22.80;99.90;;;;;;5002005;28;20203;-76
2022/08/21 06:46:26;;;;;;;9.83;5.50;;;22.90;99.90;;;;;;5017621;28;20399;-76
2022/08/21 06:48:53;;;;;;;7.63;5.17;;;23.00;99.90;;;;;;5017537;28;20583;-76
2022/08/21 06:51:21;;;;;;;9.40;5.43;;;23.10;99.90;;;;;;5035478;28;20553;-76
2022/08/21 06:53:51;;;;;;;9.35;5.55;;;23.10;99.90;;;;;;5001924;28;20198;-77
2022/08/21 06:56:19;;;;;;;7.63;5.40;;;23.10;99.90;;;;;;5037196;23;20624;-76
2022/08/21 06:58:46;;;;;;;14.73;6.97;;;23.10;99.90;;;;;;5054917;28;20187;-77
2022/08/21 07:01:13;;;;;;;20.80;8.00;;;23.10;99.90;;;;;;5020267;28;20229;-76
2022/08/21 07:03:42;;;;;;;9.03;5.63;;;23.10;99.90;;;;;;5036297;28;20198;-81
2022/08/21 07:06:10;;;;;;;9.27;5.78;;;23.10;99.90;;;;;;5036825;28;20213;-76
2022/08/21 07:08:37;;;;;;;8.17;5.63;;;23.20;99.90;;;;;;5036588;28;20222;-77
2022/08/21 07:11:12;;;;;;;6.93;5.43;;;23.20;99.90;;;;;;5054453;28;20732;-77
2022/08/21 07:13:51;;;;;;;10.57;5.80;;;23.30;99.90;;;;;;5054730;28;20194;-77
2022/08/21 07:16:19;;;;;;;6.70;5.67;;;23.40;99.90;;;;;;5054092;28;20191;-77
2022/08/21 07:18:51;;;;;;;8.03;5.97;;;23.40;99.90;;;;;;5054640;28;20199;-78
2022/08/21 07:21:18;;;;;;;8.20;6.00;;;23.50;99.90;;;;;;5052504;28;20209;-78
2022/08/21 07:23:55;;;;;;;11.97;6.63;;;23.60;99.90;;;;;;5053181;28;20548;-77
2022/08/21 07:26:42;;;;;;;9.43;5.90;;;23.60;99.90;;;;;;5036306;28;20709;-76
2022/08/21 07:29:52;;;;;;;9.57;6.00;;;23.60;99.90;;;;;;5036448;28;20238;-77
2022/08/21 07:32:22;;;;;;;10.23;6.03;;;23.70;99.90;;;;;;5036355;28;20318;-78
2022/08/21 07:34:49;;;;;;;8.03;5.40;;;23.80;99.90;;;;;;5036552;28;20293;-78
2022/08/21 07:37:20;;;;;;;9.25;6.43;;;23.90;99.90;;;;;;5036378;28;20278;-78
2022/08/21 07:40:22;;;;;;;9.63;6.23;;;24.00;99.90;;;;;;5036501;28;20183;-78
2022/08/21 07:43:12;;;;;;;7.35;5.70;;;24.10;99.90;;;;;;4992455;28;20211;-77
2022/08/21 07:45:39;;;;;;;8.80;6.10;;;24.20;99.90;;;;;;4992609;28;20201;-77
2022/08/21 07:48:06;;;;;;;7.43;5.63;;;24.30;99.90;;;;;;4992642;28;20228;-77
2022/08/21 07:58:49;;;;;;;9.17;5.90;;;24.60;99.90;;;;;;4953108;28;20193;-78
2022/08/21 08:01:17;;;;;;;9.88;6.20;;;24.70;99.90;;;;;;4937540;29;20721;-79
2022/08/21 08:06:25;;;;;;;8.80;6.15;;;24.80;99.90;;;;;;4992955;28;20724;-80
2022/08/21 08:08:55;;;;;;;7.90;5.35;;;25.00;99.90;;;;;;4994217;28;20260;-78
2022/08/21 08:14:03;;;;;;;7.63;5.50;;;26.70;99.90;;;;;;5259181;22;20297;-79
2022/08/21 08:17:23;;;;;;;8.18;5.38;;;27.50;99.90;;;;;;4975732;28;20192;-80
2022/08/21 08:21:02;;;;;;;7.50;5.47;;;28.40;99.90;;;;;;4918116;29;20874;-80
2022/08/21 08:23:31;;;;;;;19.63;6.78;;;28.90;99.90;;;;;;5167682;23;20314;-80
2022/08/21 08:25:59;;;;;;;6.53;5.32;;;29.30;99.90;;;;;;5038765;28;20197;-80
2022/08/21 08:28:27;;;;;;;9.35;5.70;;;29.70;99.90;;;;;;5039067;28;20730;-80
2022/08/21 08:30:55;;;;;;;9.38;5.32;;;30.00;99.90;;;;;;5055426;28;20240;-79
2022/08/21 08:33:22;;;;;;;8.85;5.50;;;30.10;99.90;;;;;;5034340;28;20313;-79
2022/08/21 08:36:41;;;;;;;13.35;5.85;;;30.30;99.90;;;;;;5035622;28;20226;-79
2022/08/21 08:39:08;;;;;;;8.55;5.20;;;30.50;99.90;;;;;;5035302;28;20195;-78
2022/08/21 08:41:37;;;;;;;5.47;4.72;;;30.60;99.90;;;;;;5036121;28;20264;-78
2022/08/21 08:44:08;;;;;;;8.52;5.00;;;30.60;99.90;;;;;;5035826;28;20209;-79
2022/08/21 08:46:46;;;;;;;9.00;5.25;;;30.70;99.90;;;;;;5055100;28;20187;-78
2022/08/21 08:49:29;;;;;;;7.60;4.82;;;30.90;99.90;;;;;;5035634;28;20230;-79
2022/08/21 08:52:05;;;;;;;14.73;5.30;;;31.00;99.90;;;;;;5035046;28;20198;-78
2022/08/21 08:54:48;;;;;;;6.80;4.57;;;31.00;99.90;;;;;;5030439;28;20298;-78
2022/08/21 08:57:19;;;;;;;11.63;5.38;;;30.90;99.90;;;;;;5052727;28;20187;-77
2022/08/21 08:59:52;;;;;;;7.32;4.38;;;31.00;99.90;;;;;;5053219;28;20244;-77
2022/08/21 09:02:20;;;;;;;5.80;4.35;;;31.10;99.90;;;;;;5035171;28;20230;-78
2022/08/21 09:04:49;;;;;;;5.78;4.50;;;31.20;99.90;;;;;;5035012;28;20286;-78
2022/08/21 09:07:51;;;;;;;5.93;4.55;;;31.20;99.90;;;;;;5035131;28;20212;-79
2022/08/21 09:10:20;;;;;;;5.95;4.63;;;30.70;99.90;;;;;;5035175;28;20313;-78
2022/08/21 09:13:18;;;;;;;6.72;4.65;;;30.50;99.90;;;;;;5035121;28;20199;-76
2022/08/21 09:18:47;;;;;;;6.38;4.50;;;30.80;99.90;;;;;;5083557;23;20562;-80
2022/08/21 09:21:44;;;;;;;8.05;4.70;;;30.60;99.90;;;;;;5054529;28;20194;-76
2022/08/21 09:24:32;;;;;;;5.32;4.50;;;30.50;99.90;;;;;;5054465;28;20283;-76
2022/08/21 09:27:14;;;;;;;8.95;5.15;;;30.40;99.90;;;;;;5054403;28;20298;-76
2022/08/21 09:29:45;;;;;;;6.10;4.38;;;30.40;99.90;;;;;;5054655;28;20411;-76
2022/08/21 09:32:18;;;;;;;6.15;4.43;;;30.20;99.90;;;;;;5054269;28;20249;-76
2022/08/21 09:35:08;;;;;;;4.72;4.15;;;30.40;99.90;;;;;;5054276;28;20479;-77
2022/08/21 09:37:57;;;;;;;6.30;4.40;;;30.30;99.90;;;;;;5072815;28;20506;-76
2022/08/21 09:40:37;;;;;;;5.68;4.07;;;30.40;99.90;;;;;;5072331;28;20228;-77
2022/08/21 09:43:21;;;;;;;6.35;3.85;;;30.40;99.90;;;;;;5072142;28;20183;-79
2022/08/21 09:46:01;;;;;;;6.38;4.00;;;30.40;99.90;;;;;;5058663;28;20220;-76
2022/08/21 09:48:29;;;;;;;5.47;3.92;;;30.40;99.90;;;;;;5076204;28;20226;-75
2022/08/21 09:51:11;;;;;;;4.88;3.58;;;30.20;99.90;;;;;;5058251;28;20190;-75
2022/08/21 09:53:44;;;;;;;7.18;4.30;;;30.20;99.90;;;;;;5042013;28;20225;-78
2022/08/21 09:59:23;;;;;;;5.60;3.83;;;31.10;99.90;;;;;;5076140;28;20647;-76
2022/08/21 10:01:51;;;;;;;5.65;3.60;;;31.00;99.90;;;;;;5057956;28;20230;-77
2022/08/21 10:04:31;;;;;;;7.75;4.18;;;30.80;99.90;;;;;;5040961;28;20674;-76
2022/08/21 10:07:14;;;;;;;6.60;3.78;;;30.90;99.90;;;;;;5076233;28;20545;-76
2022/08/21 10:09:41;;;;;;;6.15;3.67;;;31.40;99.90;;;;;;5041423;28;20237;-75
2022/08/21 10:12:23;;;;;;;6.25;3.90;;;31.40;99.90;;;;;;5057584;28;20194;-76
2022/08/21 10:15:10;;;;;;;6.97;3.92;;;31.20;99.90;;;;;;5057470;28;20198;-78
2022/08/21 10:17:41;;;;;;;5.38;3.80;;;30.90;99.90;;;;;;5040299;28;20289;-79
2022/08/21 10:20:19;;;;;;;5.18;3.65;;;30.50;99.90;;;;;;5057718;28;20289;-73
2022/08/21 10:23:00;;;;;;;4.90;3.40;;;30.20;99.90;;;;;;5040520;28;20202;-76
2022/08/21 10:25:43;;;;;;;6.32;3.70;;;30.00;99.90;;;;;;5075668;28;20213;-74
2022/08/21 10:29:15;;;;;;;15.80;5.40;;;29.70;99.90;;;;;;5043516;28;20224;-75
2022/08/21 10:32:27;;;;;;;6.45;3.85;;;29.50;99.90;;;;;;5037943;23;20243;-72
2022/08/21 10:35:34;;;;;;;5.25;3.97;;;29.50;99.90;;;;;;5017907;28;20341;-76
2022/08/21 10:38:44;;;;;;;7.03;3.80;;;29.40;99.90;;;;;;5016396;28;20203;-76
2022/08/21 10:41:58;;;;;;;6.28;3.72;;;29.90;99.90;;;;;;5034333;28;20573;-76
2022/08/21 10:44:50;;;;;;;5.03;3.30;;;30.40;99.90;;;;;;5017530;28;20203;-76
2022/08/21 10:50:24;;;;;;;5.22;3.67;;;30.60;99.90;;;;;;4668189;26;20522;-78
2022/08/21 10:53:12;;;;;;;3.95;3.22;;;30.90;99.90;;;;;;5037243;28;20627;-77
2022/08/21 10:55:58;;;;;;;7.75;3.55;;;30.80;99.90;;;;;;5036316;28;20199;-75
2022/08/21 10:58:40;;;;;;;13.40;3.92;;;30.40;99.90;;;;;;5037136;28;20235;-70
2022/08/21 11:01:19;;;;;;;7.60;3.67;;;30.60;99.90;;;;;;5037258;28;20264;-70
2022/08/21 11:03:53;;;;;;;6.15;3.85;;;30.80;99.90;;;;;;5054646;28;20190;-68
2022/08/21 11:06:26;;;;;;;4.55;3.20;;;31.20;99.90;;;;;;5037357;28;20660;-69
2022/08/21 11:09:00;;;;;;;4.20;2.85;;;31.60;99.90;;;;;;5037178;28;20214;-69
2022/08/21 11:11:33;;;;;;;4.57;3.28;;;32.20;99.00;;;;;;5054459;28;20213;-70
2022/08/21 11:14:11;;;;;;;6.38;3.08;;;32.80;98.40;;;;;;5053517;28;20632;-72
2022/08/21 11:16:45;;;;;;;4.40;3.38;;;33.50;96.90;;;;;;5037102;28;20592;-69
2022/08/21 11:19:35;;;;;;;3.40;2.95;;;33.50;95.30;;;;;;5053277;28;20220;-68
2022/08/21 11:22:14;;;;;;;17.17;5.05;;;33.40;95.80;;;;;;5036541;28;20268;-69
2022/08/21 11:24:55;;;;;;;5.72;3.33;;;33.60;96.40;;;;;;5053605;28;20202;-67
2022/08/21 11:27:43;;;;;;;5.95;3.00;;;33.60;95.20;;;;;;5037048;28;20564;-68
2022/08/21 11:30:12;;;;;;;4.05;2.90;;;33.40;95.80;;;;;;5037299;28;20234;-67
2022/08/21 11:33:07;;;;;;;6.38;3.30;;;33.20;95.30;;;;;;5036658;28;20221;-68
2022/08/21 11:35:55;;;;;;;4.38;2.95;;;33.00;95.30;;;;;;5054519;28;20202;-71
2022/08/21 11:38:44;;;;;;;7.13;2.85;;;32.60;95.20;;;;;;5036280;28;20209;-68
2022/08/21 11:41:36;;;;;;;5.00;2.95;;;32.30;95.80;;;;;;5036387;28;20202;-68
2022/08/21 11:44:23;;;;;;;3.53;2.78;;;32.10;96.10;;;;;;5036427;28;20207;-67
2022/08/21 11:46:58;;;;;;;5.40;2.78;;;31.90;95.50;;;;;;5036439;28;20553;-70
2022/08/21 11:49:38;;;;;;;5.15;3.08;;;31.50;95.60;;;;;;5053520;28;20233;-68
2022/08/21 11:52:35;;;;;;;3.63;3.05;;;31.40;95.70;;;;;;5036214;28;20195;-70
2022/08/21 11:55:14;;;;;;;4.72;3.40;;;31.30;96.00;;;;;;5036277;28;20234;-69
2022/08/21 11:57:57;;;;;;;3.40;3.10;;;31.50;95.60;;;;;;5035762;28;20281;-68
2022/08/21 12:00:48;;;;;;;4.05;3.00;;;31.70;97.20;;;;;;5035995;28;20203;-69
2022/08/21 12:03:37;;;;;;;5.57;3.60;;;32.10;97.00;;;;;;5053705;28;20672;-69
2022/08/21 12:06:10;;;;;;;7.75;3.40;;;32.60;95.90;;;;;;5035642;28;20198;-69
2022/08/21 12:08:39;;;;;;;4.28;3.20;;;33.10;95.40;;;;;;5053970;28;20203;-72
2022/08/21 12:11:18;;;;;;;3.92;3.08;;;33.70;95.00;;;;;;5053620;28;20222;-72
2022/08/21 12:14:04;;;;;;;3.95;3.25;;;34.40;93.40;;;;;;5053788;28;20290;-75
2022/08/21 12:16:40;;;;;;;4.88;3.10;;;34.70;92.80;;;;;;5035290;28;20198;-72
2022/08/21 12:19:28;;;;;;;4.60;2.90;;;35.00;91.30;;;;;;5034964;28;20290;-72
2022/08/21 12:22:05;;;;;;;4.43;2.90;;;35.30;90.50;;;;;;5035286;28;20210;-71
2022/08/21 12:25:05;;;;;;;4.53;3.00;;;35.30;89.90;;;;;;5035497;28;20202;-71
2022/08/21 12:27:51;;;;;;;5.63;3.10;;;35.20;87.90;;;;;;5053297;28;20220;-72
2022/08/21 12:30:26;;;;;;;3.65;3.00;;;35.60;87.50;;;;;;5035381;28;20224;-71
2022/08/21 12:32:59;;;;;;;5.82;3.22;;;35.80;86.60;;;;;;5035215;28;20214;-71
2022/08/21 12:35:38;;;;;;;10.18;3.97;;;36.20;86.20;;;;;;5035272;28;20720;-72
2022/08/21 12:38:26;;;;;;;4.38;3.75;;;36.40;85.80;;;;;;5035200;28;20195;-71
2022/08/21 12:41:41;;;;;;;5.40;3.13;;;36.40;83.00;;;;;;5035121;28;20648;-71
2022/08/21 12:44:14;;;;;;;4.53;2.80;;;37.00;83.50;;;;;;4936908;29;20660;-71
2022/08/21 12:46:51;;;;;;;4.68;2.70;;;37.20;81.90;;;;;;4936972;29;20735;-70
2022/08/21 12:49:43;;;;;;;3.92;2.97;;;37.00;79.80;;;;;;4936659;29;20244;-71
2022/08/21 12:52:35;;;;;;;3.45;2.90;;;36.20;80.50;;;;;;4936595;29;20213;-71
2022/08/21 12:55:07;;;;;;;3.75;2.83;;;35.50;80.60;;;;;;4898964;29;20207;-72
2022/08/21 12:57:36;;;;;;;5.25;2.80;;;34.70;81.50;;;;;;4914585;29;20210;-71
2022/08/21 13:00:09;;;;;;;4.60;2.85;;;34.10;83.40;;;;;;4914673;29;20270;-71
2022/08/21 13:02:39;;;;;;;3.75;2.88;;;33.70;84.80;;;;;;4914729;29;20278;-71
2022/08/21 13:05:12;;;;;;;3.70;2.88;;;33.20;86.80;;;;;;4914570;29;20203;-72
2022/08/21 13:07:45;;;;;;;4.40;2.80;;;33.10;87.30;;;;;;4914771;29;20195;-73
2022/08/21 13:10:23;;;;;;;4.20;2.95;;;32.70;88.60;;;;;;4914600;29;20234;-71
2022/08/21 13:12:54;;;;;;;4.88;3.20;;;32.60;90.20;;;;;;4914385;29;20630;-71
2022/08/21 13:15:29;;;;;;;4.05;3.10;;;32.60;90.80;;;;;;4898605;29;20203;-72
2022/08/21 13:18:02;;;;;;;5.38;3.17;;;32.30;90.60;;;;;;4914188;29;20203;-72
2022/08/21 13:20:34;;;;;;;5.65;3.20;;;32.30;90.70;;;;;;4985284;28;20235;-70
2022/08/21 13:23:02;;;;;;;3.95;3.10;;;32.30;90.60;;;;;;5010796;28;20204;-71
2022/08/21 13:25:35;;;;;;;7.03;3.30;;;32.20;91.00;;;;;;5011073;28;20617;-73
2022/08/21 13:28:09;;;;;;;3.45;3.15;;;32.40;91.40;;;;;;5010653;28;20269;-72
2022/08/21 13:30:42;;;;;;;3.80;3.15;;;32.40;91.20;;;;;;5010908;28;20311;-72
2022/08/21 13:33:12;;;;;;;6.80;3.60;;;32.50;91.20;;;;;;5033907;28;20297;-74
2022/08/21 13:35:56;;;;;;;3.35;2.80;;;32.60;90.90;;;;;;5035138;28;20711;-72
2022/08/21 13:38:28;;;;;;;3.92;3.00;;;32.40;90.60;;;;;;5034650;28;20206;-71
2022/08/21 13:40:58;;;;;;;4.40;3.58;;;32.20;91.20;;;;;;5034489;28;20199;-70
2022/08/21 13:43:30;;;;;;;5.38;3.17;;;32.20;91.20;;;;;;5034469;28;20194;-71
2022/08/21 13:45:58;;;;;;;4.20;3.22;;;32.30;91.60;;;;;;5034677;28;20289;-72
2022/08/21 13:48:29;;;;;;;7.95;3.50;;;32.40;91.90;;;;;;5034468;28;20237;-71
2022/08/21 13:50:58;;;;;;;5.43;3.08;;;32.50;91.30;;;;;;5034712;28;20222;-71
2022/08/21 13:53:44;;;;;;;6.22;3.00;;;32.40;91.20;;;;;;5052391;28;20202;-70